createdAt,value
2017-11-01T00:02:23.827Z,14.30
2017-11-01T00:04:51.472Z,14.67
2017-11-01T00:07:19.258Z,16.30
2017-11-01T00:09:47.006Z,15.57
2017-11-01T00:12:14.764Z,14.20
2017-11-01T00:14:42.381Z,13.80
2017-11-01T00:17:10.850Z,16.47
2017-11-01T00:19:38.579Z,14.27
2017-11-01T00:22:06.191Z,14.77
2017-11-01T00:24:34.602Z,15.57
2017-11-01T00:27:02.350Z,15.60
2017-11-01T00:29:29.940Z,14.07
2017-11-01T00:31:57.575Z,14.33
2017-11-01T00:34:25.199Z,16.03
2017-11-01T00:36:53.623Z,14.87
2017-11-01T00:39:21.268Z,15.13
2017-11-01T00:41:48.864Z,15.03
2017-11-01T00:44:16.491Z,14.97
2017-11-01T00:46:44.115Z,14.87
2017-11-01T00:49:12.477Z,15.13
2017-11-01T00:51:40.112Z,14.00
2017-11-01T00:54:07.757Z,14.20
2017-11-01T00:56:35.563Z,15.03
2017-11-01T00:59:03.283Z,15.00
2017-11-01T01:01:31.031Z,15.30
2017-11-01T01:03:58.620Z,13.80
2017-11-01T01:06:26.316Z,14.40
2017-11-01T01:08:53.965Z,15.30
2017-11-01T01:11:21.690Z,15.07
2017-11-01T01:13:49.348Z,13.57
2017-11-01T01:16:16.983Z,15.20
2017-11-01T01:18:44.594Z,14.33
2017-11-01T01:21:12.433Z,13.90
2017-11-01T01:23:40.019Z,13.20
2017-11-01T01:26:07.659Z,13.60
2017-11-01T01:28:35.283Z,13.77
2017-11-01T01:31:03.723Z,14.70
2017-11-01T01:33:31.431Z,13.57
2017-11-01T01:35:59.194Z,14.40
2017-11-01T01:38:26.808Z,14.30
2017-11-01T01:40:54.726Z,14.37
2017-11-01T01:43:22.402Z,16.53
2017-11-01T01:45:50.072Z,14.17
2017-11-01T01:48:17.706Z,14.80
2017-11-01T01:50:45.384Z,14.83
2017-11-01T01:53:13.044Z,15.47
2017-11-01T01:55:40.711Z,14.50
2017-11-01T01:58:08.470Z,15.93
2017-11-01T02:00:36.091Z,14.40
2017-11-01T02:03:04.497Z,15.37
2017-11-01T02:05:32.111Z,15.20
2017-11-01T02:07:59.839Z,15.13
2017-11-01T02:18:09.075Z,14.77
2017-11-01T02:20:37.495Z,15.80
2017-11-01T02:23:05.135Z,14.47
2017-11-01T02:25:32.768Z,14.50
2017-11-01T02:28:01.143Z,14.20
2017-11-01T02:30:29.663Z,14.37
2017-11-01T02:32:57.270Z,16.07
2017-11-01T02:35:25.011Z,14.57
2017-11-01T02:37:52.655Z,13.43
2017-11-01T02:40:20.305Z,14.10
2017-11-01T02:42:47.964Z,14.80
2017-11-01T02:45:15.629Z,15.50
2017-11-01T02:47:43.282Z,13.73
2017-11-01T02:50:10.951Z,13.90
2017-11-01T02:52:38.607Z,13.80
2017-11-01T02:55:06.247Z,14.53
2017-11-01T02:57:33.853Z,15.83
2017-11-01T03:00:02.408Z,15.07
2017-11-01T03:02:30.023Z,14.17
2017-11-01T03:04:58.407Z,14.80
2017-11-01T03:07:26.822Z,15.07
2017-11-01T03:09:54.436Z,14.97
2017-11-01T03:12:22.092Z,14.17
2017-11-01T03:14:49.710Z,13.83
2017-11-01T03:17:17.333Z,14.70
2017-11-01T03:19:45.743Z,12.90
2017-11-01T03:22:13.362Z,13.37
2017-11-01T03:24:41.912Z,13.27
2017-11-01T03:27:09.524Z,14.17
2017-11-01T03:29:37.204Z,13.60
2017-11-01T03:32:04.815Z,12.50
2017-11-01T03:34:33.199Z,13.17
2017-11-01T03:37:01.618Z,12.80
2017-11-01T03:39:29.227Z,13.67
2017-11-01T03:41:57.654Z,12.87
2017-11-01T03:44:25.268Z,12.30
2017-11-01T03:46:53.661Z,13.47
2017-11-01T03:49:22.039Z,13.57
2017-11-01T03:51:50.450Z,12.10
2017-11-01T03:54:18.058Z,12.50
2017-11-01T03:56:45.666Z,13.10
2017-11-01T03:59:13.294Z,11.30
2017-11-01T04:01:41.655Z,12.80
2017-11-01T04:04:09.296Z,12.50
2017-11-01T04:06:36.907Z,12.70
2017-11-01T04:09:04.584Z,12.97
2017-11-01T04:11:32.244Z,12.60
2017-11-01T04:13:59.851Z,11.90
2017-11-01T04:16:28.225Z,12.97
2017-11-01T04:19:02.086Z,12.30
2017-11-01T04:21:29.747Z,13.50
2017-11-01T04:23:57.418Z,11.27
2017-11-01T04:26:25.051Z,12.23
2017-11-01T04:28:52.687Z,12.07
2017-11-01T04:31:21.278Z,13.20
2017-11-01T04:33:49.687Z,12.93
2017-11-01T04:36:17.300Z,12.20
2017-11-01T04:38:44.930Z,12.30
2017-11-01T04:41:12.674Z,13.43
2017-11-01T04:43:40.405Z,11.50
2017-11-01T04:46:08.813Z,10.77
2017-11-01T04:48:38.212Z,12.13
2017-11-01T04:51:10.648Z,11.30
2017-11-01T04:53:39.651Z,12.03
2017-11-01T04:56:11.086Z,11.90
2017-11-01T04:58:39.471Z,11.97
2017-11-01T05:01:07.850Z,10.83
2017-11-01T05:03:36.283Z,12.10
2017-11-01T05:06:04.125Z,10.83
2017-11-01T05:08:37.427Z,11.87
2017-11-01T05:11:09.091Z,12.80
2017-11-01T05:13:42.364Z,12.20
2017-11-01T05:16:10.055Z,12.47
2017-11-01T05:18:37.771Z,14.07
2017-11-01T05:21:05.378Z,12.40
2017-11-01T05:23:33.020Z,13.70
2017-11-01T05:26:06.351Z,13.30
2017-11-01T05:28:33.988Z,12.70
2017-11-01T05:31:01.607Z,14.20
2017-11-01T05:33:29.225Z,13.80
2017-11-01T05:35:56.854Z,14.10
2017-11-01T05:38:24.458Z,12.23
2017-11-01T05:40:53.063Z,13.10
2017-11-01T05:43:20.671Z,13.77
2017-11-01T05:45:48.257Z,13.53
2017-11-01T05:48:16.883Z,14.47
2017-11-01T05:50:44.543Z,12.57
2017-11-01T05:53:12.188Z,14.20
2017-11-01T05:55:39.794Z,13.27
2017-11-01T05:58:08.342Z,12.60
2017-11-01T06:00:35.979Z,13.10
2017-11-01T06:03:03.587Z,13.77
2017-11-01T06:05:31.325Z,13.63
2017-11-01T06:07:58.928Z,14.23
2017-11-01T06:10:26.572Z,14.43
2017-11-01T06:12:54.212Z,14.27
2017-11-01T06:15:21.954Z,14.50
2017-11-01T06:17:49.600Z,13.50
2017-11-01T06:20:17.987Z,12.10
2017-11-01T06:22:45.768Z,11.87
2017-11-01T06:25:13.375Z,12.10
2017-11-01T06:27:41.135Z,13.10
2017-11-01T06:30:09.806Z,13.50
2017-11-01T06:32:37.515Z,12.77
2017-11-01T06:35:05.201Z,13.23
2017-11-01T06:37:32.868Z,12.97
2017-11-01T06:40:00.522Z,12.70
2017-11-01T06:42:28.162Z,12.17
2017-11-01T06:44:55.770Z,13.43
2017-11-01T06:47:23.500Z,11.50
2017-11-01T06:49:51.159Z,11.60
2017-11-01T06:52:18.811Z,12.23
2017-11-01T06:54:46.458Z,12.17
2017-11-01T06:57:14.087Z,12.40
2017-11-01T06:59:41.720Z,11.60
2017-11-01T07:02:09.343Z,10.80
2017-11-01T07:04:36.976Z,10.97
2017-11-01T07:07:05.406Z,14.23
2017-11-01T07:09:38.691Z,13.50
2017-11-01T07:12:06.306Z,12.37
2017-11-01T07:14:34.684Z,12.10
2017-11-01T07:17:03.100Z,13.00
2017-11-01T07:19:30.708Z,13.67
2017-11-01T07:21:58.309Z,12.20
2017-11-01T07:24:25.943Z,11.80
2017-11-01T07:26:54.385Z,12.33
2017-11-01T07:29:22.125Z,13.70
2017-11-01T07:31:49.735Z,14.37
2017-11-01T07:34:18.152Z,14.80
2017-11-01T07:36:46.028Z,13.83
2017-11-01T07:39:13.689Z,13.67
2017-11-01T07:41:41.318Z,12.63
2017-11-01T07:44:09.830Z,13.33
2017-11-01T07:46:37.514Z,12.97
2017-11-01T07:49:05.158Z,13.23
2017-11-01T07:51:32.856Z,12.50
2017-11-01T07:54:00.516Z,13.10
2017-11-01T07:56:28.173Z,11.57
2017-11-01T07:58:55.784Z,14.37
2017-11-01T08:01:23.399Z,14.27
2017-11-01T08:03:51.114Z,11.70
2017-11-01T08:06:18.739Z,12.80
2017-11-01T08:08:47.116Z,13.33
2017-11-01T08:11:15.528Z,10.80
2017-11-01T08:13:43.172Z,13.80
2017-11-01T08:16:10.812Z,13.17
2017-11-01T08:18:39.256Z,11.40
2017-11-01T08:21:06.920Z,11.83
2017-11-01T08:23:34.536Z,12.50
2017-11-01T08:26:02.214Z,12.60
2017-11-01T08:28:29.978Z,10.93
2017-11-01T08:30:57.580Z,11.83
2017-11-01T08:33:25.263Z,12.33
2017-11-01T08:35:53.663Z,12.27
2017-11-01T08:38:21.272Z,12.37
2017-11-01T08:40:48.927Z,12.27
2017-11-01T08:43:16.595Z,11.87
2017-11-01T08:45:44.203Z,11.00
2017-11-01T08:48:11.832Z,11.83
2017-11-01T08:50:40.212Z,10.57
2017-11-01T08:53:08.594Z,12.37
2017-11-01T08:55:36.993Z,11.17
2017-11-01T08:58:04.599Z,12.17
2017-11-01T09:00:32.238Z,10.87
2017-11-01T09:02:59.889Z,10.53
2017-11-01T09:05:27.631Z,12.10
2017-11-01T09:07:55.268Z,11.70
2017-11-01T09:10:23.636Z,10.63
2017-11-01T09:12:51.344Z,11.87
2017-11-01T09:15:18.983Z,11.90
2017-11-01T09:17:46.584Z,12.07
2017-11-01T09:20:14.303Z,12.50
2017-11-01T09:22:41.971Z,11.63
2017-11-01T09:25:09.600Z,12.00
2017-11-01T09:27:38.082Z,12.47
2017-11-01T09:30:06.457Z,11.57
2017-11-01T09:32:34.101Z,12.30
2017-11-01T09:35:01.812Z,11.77
2017-11-01T09:37:29.693Z,11.30
2017-11-01T09:39:57.355Z,12.80
2017-11-01T09:42:25.095Z,11.40
2017-11-01T09:44:52.695Z,12.47
2017-11-01T09:47:20.436Z,12.23
2017-11-01T09:49:48.050Z,12.13
2017-11-01T09:52:16.455Z,11.50
2017-11-01T09:54:44.083Z,12.47
2017-11-01T09:57:11.791Z,11.17
2017-11-01T09:59:39.432Z,10.93
2017-11-01T10:02:07.095Z,11.80
2017-11-01T10:04:34.713Z,12.93
2017-11-01T10:07:02.323Z,12.40
2017-11-01T10:09:29.968Z,11.30
2017-11-01T10:11:57.595Z,11.93
2017-11-01T10:14:25.293Z,11.27
2017-11-01T10:16:53.136Z,10.97
2017-11-01T10:19:21.655Z,12.57
2017-11-01T10:21:49.299Z,12.40
2017-11-01T10:24:17.037Z,10.20
2017-11-01T10:26:44.670Z,9.90
2017-11-01T10:29:12.408Z,10.07
2017-11-01T10:31:40.059Z,10.80
2017-11-01T10:34:07.653Z,12.13
2017-11-01T10:36:35.390Z,10.73
2017-11-01T10:39:03.033Z,11.20
2017-11-01T10:41:30.677Z,10.50
2017-11-01T10:43:59.104Z,10.73
2017-11-01T10:46:26.704Z,12.10
2017-11-01T10:48:55.204Z,11.07
2017-11-01T10:51:22.833Z,11.03
2017-11-01T10:53:50.480Z,12.60
2017-11-01T10:56:18.095Z,11.30
2017-11-01T10:58:45.815Z,11.83
2017-11-01T11:01:13.419Z,10.50
2017-11-01T11:03:41.088Z,10.10
2017-11-01T11:06:08.718Z,11.97
2017-11-01T11:08:37.085Z,12.50
2017-11-01T11:11:05.472Z,12.57
2017-11-01T11:13:33.881Z,10.60
2017-11-01T11:16:01.550Z,12.00
2017-11-01T11:18:29.187Z,11.60
2017-11-01T11:20:56.848Z,11.43
2017-11-01T11:23:24.533Z,11.47
2017-11-01T11:25:52.160Z,11.00
2017-11-01T11:28:19.921Z,13.43
2017-11-01T11:30:48.310Z,12.30
2017-11-01T11:33:15.974Z,11.63
2017-11-01T11:35:43.646Z,11.80
2017-11-01T11:38:11.311Z,11.53
2017-11-01T11:40:38.935Z,10.00
2017-11-01T11:43:07.357Z,10.53
2017-11-01T11:45:35.110Z,10.83
2017-11-01T11:48:02.728Z,11.17
2017-11-01T11:50:31.240Z,10.50
2017-11-01T11:52:59.930Z,10.80
2017-11-01T11:55:27.572Z,11.23
2017-11-01T11:57:55.235Z,11.20
2017-11-01T12:00:22.852Z,11.90
2017-11-01T12:02:51.264Z,10.10
2017-11-01T12:05:19.671Z,9.43
2017-11-01T12:07:47.352Z,11.47
2017-11-01T12:10:14.999Z,11.57
2017-11-01T12:12:42.620Z,9.97
2017-11-01T12:15:11.046Z,11.20
2017-11-01T12:17:38.748Z,9.57
2017-11-01T12:20:07.230Z,10.57
2017-11-01T12:22:35.672Z,10.77
2017-11-01T12:25:03.450Z,10.33
2017-11-01T12:27:31.864Z,9.63
2017-11-01T12:30:00.245Z,9.70
2017-11-01T12:32:27.923Z,10.50
2017-11-01T12:34:55.627Z,10.23
2017-11-01T12:37:23.226Z,10.70
2017-11-01T12:39:50.883Z,10.07
2017-11-01T12:42:19.393Z,9.57
2017-11-01T12:44:47.569Z,9.87
2017-11-01T12:47:15.249Z,10.20
2017-11-01T12:49:42.912Z,10.90
2017-11-01T12:52:10.527Z,9.20
2017-11-01T12:54:38.307Z,9.60
2017-11-01T12:57:06.173Z,10.10
2017-11-01T12:59:33.849Z,9.43
2017-11-01T13:02:01.504Z,9.03
2017-11-01T13:04:29.156Z,10.07
2017-11-01T13:06:56.824Z,8.70
2017-11-01T13:09:24.444Z,9.90
2017-11-01T13:11:52.859Z,10.40
2017-11-01T13:14:20.473Z,9.50
2017-11-01T13:16:48.523Z,10.03
2017-11-01T13:19:16.224Z,9.23
2017-11-01T13:21:43.848Z,8.30
2017-11-01T13:24:12.297Z,8.63
2017-11-01T13:26:39.943Z,8.50
2017-11-01T13:29:07.571Z,7.77
2017-11-01T13:31:36.052Z,9.27
2017-11-01T13:34:04.416Z,9.23
2017-11-01T13:36:32.047Z,10.13
2017-11-01T13:38:59.663Z,8.77
2017-11-01T13:41:27.256Z,8.97
2017-11-01T13:43:54.862Z,8.93
2017-11-01T13:46:23.229Z,8.73
2017-11-01T13:48:51.648Z,8.50
2017-11-01T13:51:19.237Z,8.20
2017-11-01T13:53:46.972Z,7.73
2017-11-01T13:56:14.639Z,8.03
2017-11-01T13:58:42.294Z,8.27
2017-11-01T14:01:10.262Z,7.70
2017-11-01T14:03:37.869Z,8.33
2017-11-01T14:06:07.023Z,8.00
2017-11-01T14:08:34.615Z,7.40
2017-11-01T14:11:02.208Z,6.90
2017-11-01T14:13:30.728Z,6.17
2017-11-01T14:15:58.335Z,6.43
2017-11-01T14:21:00.154Z,6.30
2017-11-01T14:23:27.909Z,5.80
2017-11-01T14:25:55.520Z,6.50
2017-11-01T14:28:23.265Z,6.97
2017-11-01T14:30:51.711Z,5.73
2017-11-01T14:33:19.383Z,4.17
2017-11-01T14:35:47.135Z,4.80
2017-11-01T14:38:14.749Z,5.17
2017-11-01T14:40:43.183Z,5.60
2017-11-01T14:43:10.785Z,5.10
2017-11-01T14:45:38.401Z,4.17
2017-11-01T14:48:06.068Z,4.13
2017-11-01T14:50:33.685Z,4.03
2017-11-01T14:53:02.090Z,3.73
2017-11-01T14:55:29.749Z,4.23
2017-11-01T14:57:57.512Z,4.60
2017-11-01T15:00:25.286Z,4.33
2017-11-01T15:02:52.955Z,3.83
2017-11-01T15:05:20.698Z,4.17
2017-11-01T15:07:48.304Z,4.90
2017-11-01T15:10:15.932Z,4.87
2017-11-01T15:12:43.548Z,5.27
2017-11-01T15:15:12.058Z,11.20
2017-11-01T15:17:39.723Z,9.80
2017-11-01T15:20:07.372Z,5.57
2017-11-01T15:22:34.983Z,13.60
2017-11-01T15:25:03.422Z,7.53
2017-11-01T15:27:31.030Z,5.80
2017-11-01T15:29:59.504Z,6.00
2017-11-01T15:32:27.916Z,5.97
2017-11-01T15:34:55.574Z,5.57
2017-11-01T15:37:23.179Z,4.87
2017-11-01T15:39:50.816Z,5.57
2017-11-01T15:42:18.413Z,5.70
2017-11-01T15:44:47.704Z,5.30
2017-11-01T15:47:15.343Z,5.60
2017-11-01T15:49:42.989Z,5.53
2017-11-01T15:52:10.604Z,5.13
2017-11-01T15:54:38.207Z,4.73
2017-11-01T15:57:05.929Z,5.47
2017-11-01T15:59:34.320Z,4.73
2017-11-01T16:02:02.830Z,4.83
2017-11-01T16:04:30.429Z,5.97
2017-11-01T16:06:58.094Z,5.40
2017-11-01T16:09:25.740Z,6.03
2017-11-01T16:11:53.366Z,6.67
2017-11-01T16:14:21.234Z,5.90
2017-11-01T16:16:49.102Z,6.60
2017-11-01T16:19:16.794Z,5.83
2017-11-01T16:21:44.465Z,6.20
2017-11-01T16:24:12.087Z,6.60
2017-11-01T16:26:39.729Z,6.17
2017-11-01T16:29:07.363Z,6.97
2017-11-01T16:31:35.770Z,6.57
2017-11-01T16:34:03.414Z,5.53
2017-11-01T16:36:31.816Z,6.00
2017-11-01T16:38:59.481Z,5.03
2017-11-01T16:41:27.092Z,5.90
2017-11-01T16:43:55.487Z,5.00
2017-11-01T16:46:23.997Z,5.03
2017-11-01T16:48:51.739Z,5.17
2017-11-01T16:51:19.398Z,5.20
2017-11-01T16:53:47.007Z,11.63
2017-11-01T16:56:14.639Z,9.47
2017-11-01T16:58:42.271Z,7.30
2017-11-01T17:01:10.700Z,6.40
2017-11-01T17:03:38.417Z,6.23
2017-11-01T17:06:06.045Z,5.73
2017-11-01T17:08:33.703Z,6.17
2017-11-01T17:11:01.422Z,6.80
2017-11-01T17:13:29.065Z,5.63
2017-11-01T17:15:56.687Z,7.60
2017-11-01T17:18:24.403Z,7.83
2017-11-01T17:20:52.147Z,7.87
2017-11-01T17:23:19.776Z,8.67
2017-11-01T17:25:47.490Z,7.20
2017-11-01T17:28:15.105Z,8.10
2017-11-01T17:30:43.484Z,7.33
2017-11-01T17:33:11.144Z,7.13
2017-11-01T17:35:39.549Z,7.97
2017-11-01T17:38:07.224Z,7.37
2017-11-01T17:40:34.886Z,8.27
2017-11-01T17:43:02.553Z,8.13
2017-11-01T17:45:30.227Z,8.30
2017-11-01T17:47:57.856Z,7.70
2017-11-01T17:50:25.483Z,7.10
2017-11-01T17:52:53.908Z,7.53
2017-11-01T17:55:21.536Z,7.13
2017-11-01T17:57:49.934Z,7.60
2017-11-01T18:00:17.824Z,8.53
2017-11-01T18:02:45.518Z,7.20
2017-11-01T18:05:13.450Z,7.43
2017-11-01T18:07:41.096Z,7.10
2017-11-01T18:10:08.981Z,7.03
2017-11-01T18:12:36.662Z,7.80
2017-11-01T18:15:04.429Z,8.17
2017-11-01T18:17:32.082Z,7.77
2017-11-01T18:19:59.787Z,9.20
2017-11-01T18:22:27.532Z,9.03
2017-11-01T18:24:55.965Z,9.23
2017-11-01T18:27:23.863Z,10.87
2017-11-01T18:29:52.252Z,9.27
2017-11-01T18:32:20.672Z,10.20
2017-11-01T18:34:48.334Z,10.13
2017-11-01T18:37:16.198Z,9.70
2017-11-01T18:39:43.833Z,9.97
2017-11-01T18:42:11.470Z,11.97
2017-11-01T18:44:39.888Z,11.20
2017-11-01T18:47:07.547Z,11.30
2017-11-01T18:49:35.160Z,10.80
2017-11-01T18:52:02.944Z,11.00
2017-11-01T18:54:31.355Z,11.70
2017-11-01T18:56:59.021Z,12.00
2017-11-01T18:59:26.658Z,13.30
2017-11-01T19:01:54.293Z,12.97
2017-11-01T19:04:22.719Z,11.70
2017-11-01T19:06:50.331Z,11.90
2017-11-01T19:09:18.735Z,10.40
2017-11-01T19:11:46.367Z,11.73
2017-11-01T19:14:13.968Z,12.10
2017-11-01T19:16:41.612Z,11.80
2017-11-01T19:19:09.232Z,13.80
2017-11-01T19:21:36.900Z,13.00
2017-11-01T19:24:05.336Z,14.70
2017-11-01T19:26:32.952Z,12.23
2017-11-01T19:29:01.481Z,11.53
2017-11-01T19:31:29.178Z,11.83
2017-11-01T19:33:56.862Z,12.47
2017-11-01T19:36:24.531Z,11.97
2017-11-01T19:38:52.295Z,11.07
2017-11-01T19:41:19.993Z,11.50
2017-11-01T19:43:47.751Z,12.97
2017-11-01T19:46:15.408Z,12.23
2017-11-01T19:48:43.095Z,11.03
2017-11-01T19:51:10.716Z,11.20
2017-11-01T19:53:38.487Z,11.50
2017-11-01T19:56:06.255Z,11.57
2017-11-01T19:58:33.905Z,12.40
2017-11-01T20:01:01.762Z,11.97
2017-11-01T20:03:29.429Z,11.87
2017-11-01T20:05:57.095Z,12.07
2017-11-01T20:08:24.857Z,13.43
2017-11-01T20:10:52.603Z,11.50
2017-11-01T20:13:20.384Z,13.27
2017-11-01T20:15:48.102Z,14.37
2017-11-01T20:18:15.738Z,12.57
2017-11-01T20:20:43.570Z,14.13
2017-11-01T20:23:11.205Z,13.87
2017-11-01T20:25:38.932Z,12.30
2017-11-01T20:28:07.136Z,12.63
2017-11-01T20:30:35.028Z,12.17
2017-11-01T20:33:02.713Z,12.17
2017-11-01T20:35:30.429Z,13.00
2017-11-01T20:37:58.120Z,12.80
2017-11-01T20:40:25.745Z,13.30
2017-11-01T20:42:54.459Z,13.40
2017-11-01T20:45:22.127Z,14.50
2017-11-01T20:47:49.941Z,13.20
2017-11-01T20:50:18.389Z,13.87
2017-11-01T20:52:46.031Z,15.30
2017-11-01T20:55:14.039Z,13.10
2017-11-01T20:57:41.862Z,12.80
2017-11-01T21:00:09.489Z,14.33
2017-11-01T21:02:37.964Z,14.57
2017-11-01T21:05:06.532Z,13.43
2017-11-01T21:07:34.203Z,15.50
2017-11-01T21:10:01.825Z,16.07
2017-11-01T21:12:29.508Z,16.50
2017-11-01T21:14:57.114Z,17.10
2017-11-01T21:17:24.969Z,14.60
2017-11-01T21:19:52.740Z,16.60
2017-11-01T21:22:20.505Z,15.77
2017-11-01T21:24:48.271Z,16.00
2017-11-01T21:27:15.932Z,13.63
2017-11-01T21:29:43.810Z,13.80
2017-11-01T21:32:11.432Z,14.37
2017-11-01T21:34:39.117Z,13.73
2017-11-01T21:37:06.787Z,12.60
2017-11-01T21:39:34.419Z,13.97
2017-11-01T21:42:02.056Z,11.43
2017-11-01T21:44:30.422Z,12.33
2017-11-01T21:46:58.128Z,10.93
2017-11-01T21:49:25.798Z,11.77
2017-11-01T21:51:53.676Z,12.50
2017-11-01T21:54:21.350Z,12.40
2017-11-01T21:56:49.015Z,13.23
2017-11-01T21:59:16.640Z,11.33
2017-11-01T22:01:44.399Z,11.67
2017-11-01T22:04:12.025Z,11.77
2017-11-01T22:06:40.403Z,11.67
2017-11-01T22:09:08.889Z,11.33
2017-11-01T22:11:37.280Z,11.00
2017-11-01T22:14:05.065Z,12.10
2017-11-01T22:16:32.796Z,11.50
2017-11-01T22:19:00.468Z,11.60
2017-11-01T22:21:28.075Z,11.83
2017-11-01T22:23:55.789Z,11.90
2017-11-01T22:26:23.468Z,10.90
2017-11-01T22:28:51.085Z,11.40
2017-11-01T22:31:18.722Z,11.17
2017-11-01T22:33:46.375Z,11.77
2017-11-01T22:36:14.014Z,11.80
2017-11-01T22:38:41.634Z,11.90
2017-11-01T22:41:09.533Z,12.87
2017-11-01T22:43:37.179Z,12.70
2017-11-01T22:46:04.794Z,12.30
2017-11-01T22:48:33.239Z,11.80
2017-11-01T22:51:00.911Z,10.80
2017-11-01T22:53:28.551Z,12.10
2017-11-01T22:55:56.285Z,12.13
2017-11-01T22:58:24.659Z,11.60
2017-11-01T23:00:53.228Z,11.30
2017-11-01T23:03:21.664Z,11.13
2017-11-01T23:05:49.275Z,11.10
2017-11-01T23:08:17.650Z,11.57
2017-11-01T23:10:46.078Z,12.07
2017-11-01T23:13:13.749Z,11.20
2017-11-01T23:15:41.399Z,13.03
2017-11-01T23:18:09.053Z,11.67
2017-11-01T23:20:36.648Z,11.77
2017-11-01T23:23:04.575Z,11.70
2017-11-01T23:25:32.204Z,12.10
2017-11-01T23:28:00.565Z,12.07
2017-11-01T23:30:29.007Z,11.97
2017-11-01T23:32:56.631Z,12.20
2017-11-01T23:35:24.308Z,13.90
2017-11-01T23:37:52.056Z,12.10
2017-11-01T23:40:19.685Z,12.40
2017-11-01T23:42:48.079Z,11.80
2017-11-01T23:45:17.143Z,11.77
2017-11-01T23:47:44.734Z,11.53
2017-11-01T23:50:12.391Z,12.97
2017-11-01T23:52:40.771Z,11.63
2017-11-01T23:55:08.416Z,12.23
2017-11-01T23:57:36.799Z,11.20
